createdAt,value
2019-04-22T00:00:30.798Z,15.00
2019-04-22T00:03:02.818Z,16.40
2019-04-22T00:05:51.215Z,17.87
2019-04-22T00:08:24.769Z,14.40
2019-04-22T00:10:54.276Z,16.57
2019-04-22T00:13:32.407Z,15.60
2019-04-22T00:15:55.303Z,15.63
2019-04-22T00:18:36.600Z,15.43
2019-04-22T00:20:58.331Z,17.37
2019-04-22T00:23:35.966Z,15.47
2019-04-22T00:26:04.041Z,14.83
2019-04-22T00:28:37.929Z,15.60
2019-04-22T00:31:18.977Z,17.50
2019-04-22T00:33:46.741Z,19.10
2019-04-22T00:36:17.795Z,18.03
2019-04-22T00:38:51.654Z,18.30
2019-04-22T00:41:21.451Z,17.97
2019-04-22T00:43:59.609Z,16.73
2019-04-22T00:46:25.254Z,17.13
2019-04-22T00:49:28.724Z,19.47
2019-04-22T00:51:28.674Z,16.83
2019-04-22T00:53:54.329Z,20.03
2019-04-22T00:56:22.070Z,18.13
2019-04-22T00:58:56.308Z,16.33
2019-04-22T01:01:50.594Z,16.73
2019-04-22T01:04:07.197Z,18.13
2019-04-22T01:06:46.708Z,17.20
2019-04-22T01:09:04.749Z,14.87
2019-04-22T01:11:44.607Z,19.10
2019-04-22T01:14:04.900Z,18.23
2019-04-22T01:16:39.303Z,16.17
2019-04-22T01:19:07.828Z,18.90
2019-04-22T01:24:05.230Z,20.60
2019-04-22T01:26:30.007Z,20.47
2019-04-22T01:28:59.624Z,20.27
2019-04-22T01:31:22.251Z,18.63
2019-04-22T01:34:04.352Z,18.17
2019-04-22T01:36:38.675Z,18.23
2019-04-22T01:39:18.262Z,17.33
2019-04-22T01:41:54.858Z,18.77
2019-04-22T01:44:27.261Z,19.73
2019-04-22T01:46:54.038Z,20.93
2019-04-22T01:49:25.596Z,20.60
2019-04-22T01:54:29.733Z,20.67
2019-04-22T01:56:55.380Z,20.30
2019-04-22T01:59:15.673Z,22.60
2019-04-22T02:02:00.570Z,21.63
2019-04-22T02:04:32.460Z,22.90
2019-04-22T02:06:57.778Z,21.47
2019-04-22T02:09:31.711Z,19.73
2019-04-22T02:12:00.232Z,22.83
2019-04-22T02:14:32.986Z,21.60
2019-04-22T02:17:01.371Z,23.33
2019-04-22T02:19:37.624Z,24.03
2019-04-22T02:21:59.691Z,23.87
2019-04-22T02:24:39.602Z,21.37
2019-04-22T02:27:13.776Z,24.50
2019-04-22T02:29:34.675Z,26.83
2019-04-22T02:34:50.406Z,24.10
2019-04-22T02:37:12.968Z,23.63
2019-04-22T02:39:45.355Z,21.20
2019-04-22T02:44:48.693Z,26.60
2019-04-22T02:47:20.560Z,24.93
2019-04-22T02:49:47.101Z,25.30
2019-04-22T02:54:55.053Z,27.83
2019-04-22T02:57:32.334Z,27.10
2019-04-22T03:00:01.133Z,28.27
2019-04-22T03:02:35.692Z,25.30
2019-04-22T03:04:57.715Z,26.57
2019-04-22T03:07:23.250Z,24.90
2019-04-22T03:09:59.483Z,27.17
2019-04-22T03:12:25.130Z,27.97
2019-04-22T03:14:55.464Z,26.20
2019-04-22T03:17:43.820Z,25.57
2019-04-22T03:20:06.296Z,22.90
2019-04-22T03:22:34.557Z,25.60
2019-04-22T03:25:37.654Z,29.33
2019-04-22T03:27:48.145Z,25.60
2019-04-22T03:43:07.557Z,28.80
2019-04-22T03:45:30.318Z,29.70
2019-04-22T03:48:02.787Z,30.83
2019-04-22T03:53:38.429Z,28.40
2019-04-22T03:58:21.477Z,31.67
2019-04-22T04:03:13.459Z,29.60
2019-04-22T04:05:57.665Z,28.33
2019-04-22T04:08:29.419Z,27.90
2019-04-22T04:10:55.655Z,29.70
2019-04-22T04:13:30.346Z,27.47
2019-04-22T04:15:55.758Z,30.23
2019-04-22T04:24:11.240Z,33.63
2019-04-22T04:26:45.747Z,32.23
2019-04-22T04:29:39.601Z,32.87
2019-04-22T04:34:28.445Z,31.17
2019-04-22T04:39:43.355Z,33.50
2019-04-22T04:42:14.380Z,31.27
2019-04-22T04:47:25.798Z,31.50
2019-04-22T04:49:57.473Z,32.93
2019-04-22T05:05:31.505Z,35.27
2019-04-22T05:07:55.772Z,33.33
2019-04-22T05:10:49.728Z,32.00
2019-04-22T05:13:23.444Z,34.17
2019-04-22T05:16:03.092Z,33.60
2019-04-22T05:23:27.745Z,34.13
2019-04-22T05:25:55.509Z,33.63
2019-04-22T05:28:24.545Z,36.43
2019-04-22T05:30:57.263Z,34.87
2019-04-22T05:33:27.488Z,36.50
2019-04-22T05:35:58.176Z,35.67
2019-04-22T05:38:34.906Z,35.93
2019-04-22T05:40:56.355Z,38.00
2019-04-22T05:43:27.462Z,36.30
2019-04-22T05:45:58.857Z,36.13
2019-04-22T05:48:37.349Z,39.77
2019-04-22T05:51:01.104Z,34.40
2019-04-22T05:53:32.472Z,37.63
2019-04-22T05:56:15.417Z,34.83
2019-04-22T05:58:41.513Z,39.30
2019-04-22T06:03:47.673Z,42.00
2019-04-22T06:06:16.646Z,41.30
2019-04-22T06:08:55.803Z,39.87
2019-04-22T06:11:26.795Z,37.57
2019-04-22T06:13:50.029Z,38.77
2019-04-22T06:16:26.435Z,41.33
2019-04-22T06:19:01.022Z,41.17
2019-04-22T06:21:27.822Z,44.10
2019-04-22T06:29:01.626Z,44.10
2019-04-22T06:31:36.983Z,42.20
2019-04-22T06:34:02.299Z,41.20
2019-04-22T06:36:38.264Z,40.83
2019-04-22T06:39:13.371Z,43.30
2019-04-22T06:41:35.112Z,42.00
2019-04-22T06:44:16.212Z,39.20
2019-04-22T06:46:41.865Z,40.93
2019-04-22T06:49:11.266Z,40.70
2019-04-22T06:54:17.559Z,41.77
2019-04-22T06:56:42.743Z,44.10
2019-04-22T06:59:14.777Z,45.17
2019-04-22T07:01:48.725Z,41.53
2019-04-22T07:04:24.315Z,40.67
2019-04-22T07:06:54.169Z,43.13
2019-04-22T07:09:30.945Z,40.60
2019-04-22T07:11:57.562Z,44.17
2019-04-22T07:14:22.796Z,41.70
2019-04-22T07:16:57.512Z,43.13
2019-04-22T07:19:28.854Z,40.77
2019-04-22T07:22:07.063Z,43.20
2019-04-22T07:24:40.581Z,42.67
2019-04-22T07:27:04.704Z,39.40
2019-04-22T07:29:35.318Z,40.03
2019-04-22T07:34:33.137Z,41.47
2019-04-22T07:37:20.021Z,40.00
2019-04-22T07:39:44.231Z,39.40
2019-04-22T07:42:12.039Z,38.67
2019-04-22T07:44:45.038Z,40.10
2019-04-22T07:47:20.594Z,40.60
2019-04-22T07:52:15.919Z,38.53
2019-04-22T07:54:55.827Z,41.00
2019-04-22T07:57:32.515Z,36.40
2019-04-22T07:59:49.310Z,36.23
2019-04-22T08:02:26.230Z,36.83
2019-04-22T08:05:07.343Z,37.30
2019-04-22T08:07:30.455Z,37.33
2019-04-22T08:10:09.151Z,38.77
2019-04-22T08:15:10.674Z,36.23
2019-04-22T08:20:08.440Z,35.73
2019-04-22T08:22:37.634Z,38.97
2019-04-22T08:25:04.177Z,36.10
2019-04-22T08:27:35.625Z,41.80
2019-04-22T08:30:29.087Z,43.37
2019-04-22T08:32:41.271Z,57.23
2019-04-22T08:35:18.109Z,39.43
2019-04-22T08:37:52.461Z,35.33
2019-04-22T08:40:21.463Z,36.27
2019-04-22T08:43:09.097Z,34.20
2019-04-22T08:45:18.664Z,36.97
2019-04-22T08:47:48.219Z,36.43
2019-04-22T08:51:22.266Z,36.13
2019-04-22T08:54:44.295Z,33.60
2019-04-22T09:12:03.722Z,31.40
2019-04-22T09:37:07.928Z,30.83
2019-04-22T09:39:34.691Z,29.60
2019-04-22T09:42:07.934Z,30.23
2019-04-22T09:44:36.199Z,32.60
2019-04-22T09:47:08.126Z,30.23
2019-04-22T09:49:44.270Z,34.27
2019-04-22T09:52:37.513Z,25.67
2019-04-22T09:55:12.492Z,27.27
2019-04-22T09:57:44.959Z,26.57
2019-04-22T10:00:43.274Z,28.30
2019-04-22T10:02:56.214Z,25.13
2019-04-22T10:05:21.102Z,23.67
2019-04-22T10:08:22.244Z,28.33
2019-04-22T10:10:56.579Z,22.43
2019-04-22T10:13:30.241Z,27.80
2019-04-22T10:16:05.771Z,25.57
2019-04-22T10:18:29.227Z,27.20
2019-04-22T10:21:01.667Z,28.07
2019-04-22T10:23:31.499Z,22.53
2019-04-22T10:25:59.102Z,23.67
2019-04-22T10:28:32.365Z,23.43
2019-04-22T10:31:00.427Z,23.73
2019-04-22T10:33:25.879Z,21.27
2019-04-22T10:35:39.441Z,23.13
2019-04-22T10:38:10.234Z,22.03
2019-04-22T10:40:42.867Z,21.63
2019-04-22T10:43:12.101Z,21.83
2019-04-22T10:45:42.006Z,24.97
2019-04-22T10:48:12.379Z,23.00
2019-04-22T10:50:54.776Z,25.53
2019-04-22T10:53:24.022Z,24.23
2019-04-22T10:55:54.385Z,21.80
2019-04-22T10:58:24.830Z,20.80
2019-04-22T11:00:56.133Z,21.03
2019-04-22T11:03:24.850Z,22.43
2019-04-22T11:05:57.356Z,22.73
2019-04-22T11:08:37.553Z,25.07
2019-04-22T11:11:12.016Z,17.77
2019-04-22T11:13:29.680Z,18.57
2019-04-22T11:15:58.796Z,19.20
2019-04-22T11:18:31.715Z,18.80
2019-04-22T11:21:01.919Z,17.10
2019-04-22T11:23:32.393Z,16.57
2019-04-22T11:26:03.869Z,17.63
2019-04-22T11:28:36.087Z,16.60
2019-04-22T11:31:06.205Z,16.53
2019-04-22T11:33:36.385Z,15.90
2019-04-22T11:36:06.204Z,15.50
2019-04-22T11:38:37.696Z,16.80
2019-04-22T11:41:07.243Z,15.67
2019-04-22T11:43:36.592Z,16.17
2019-04-22T11:46:07.320Z,18.23
2019-04-22T11:48:37.997Z,16.33
2019-04-22T11:51:07.274Z,17.73
2019-04-22T11:53:36.723Z,16.87
2019-04-22T11:56:06.882Z,16.67
2019-04-22T11:58:37.266Z,17.67
2019-04-22T12:01:12.774Z,17.93
2019-04-22T12:03:42.132Z,16.17
2019-04-22T12:06:11.355Z,15.43
2019-04-22T12:08:43.629Z,17.63
2019-04-22T12:11:13.608Z,16.00
2019-04-22T12:13:44.105Z,14.23
2019-04-22T12:16:13.638Z,12.03
2019-04-22T12:18:43.081Z,12.47
2019-04-22T12:21:13.138Z,12.53
2019-04-22T12:23:45.172Z,12.10
2019-04-22T12:26:18.399Z,10.90
2019-04-22T12:28:44.781Z,14.60
2019-04-22T12:31:15.388Z,28.97
2019-04-22T12:33:45.407Z,12.50
2019-04-22T12:36:14.980Z,15.10
2019-04-22T12:38:45.323Z,11.77
2019-04-22T12:41:16.028Z,9.67
2019-04-22T12:43:51.285Z,12.73
2019-04-22T12:46:20.619Z,14.53
2019-04-22T12:48:49.935Z,9.90
2019-04-22T12:51:20.945Z,17.37
2019-04-22T12:53:50.906Z,13.57
2019-04-22T12:56:21.446Z,8.93
2019-04-22T12:58:53.934Z,9.03
2019-04-22T13:01:24.657Z,11.20
2019-04-22T13:04:03.240Z,6.60
2019-04-22T13:06:28.025Z,9.55
2019-04-22T13:08:57.454Z,7.47
2019-04-22T13:11:30.891Z,8.10
2019-04-22T13:14:01.017Z,8.75
2019-04-22T13:16:33.039Z,6.27
2019-04-22T13:19:11.251Z,5.83
2019-04-22T13:21:38.527Z,6.00
2019-04-22T13:24:09.093Z,5.87
2019-04-22T13:26:38.608Z,7.83
2019-04-22T13:29:09.055Z,9.30
2019-04-22T13:31:40.358Z,10.53
2019-04-22T13:34:18.086Z,6.17
2019-04-22T13:36:43.579Z,9.37
2019-04-22T13:39:13.172Z,8.63
2019-04-22T13:41:52.212Z,10.07
2019-04-22T13:44:25.329Z,10.27
2019-04-22T13:47:08.609Z,6.30
2019-04-22T13:49:59.757Z,9.80
2019-04-22T13:52:32.007Z,7.83
2019-04-22T13:57:42.496Z,7.90
2019-04-22T14:00:06.542Z,6.42
2019-04-22T14:02:50.587Z,9.73
2019-04-22T14:05:22.417Z,9.85
2019-04-22T14:07:55.648Z,8.85
2019-04-22T14:10:26.952Z,7.72
2019-04-22T14:13:09.919Z,10.03
2019-04-22T14:15:40.262Z,11.33
2019-04-22T14:18:12.833Z,6.90
2019-04-22T14:20:44.973Z,7.85
2019-04-22T14:23:15.630Z,8.85
2019-04-22T14:25:46.794Z,9.83
2019-04-22T14:28:21.479Z,12.90
2019-04-22T14:31:04.371Z,10.25
2019-04-22T14:34:10.241Z,9.93
2019-04-22T14:36:43.396Z,12.78
2019-04-22T14:39:13.132Z,8.13
2019-04-22T14:42:14.084Z,8.98
2019-04-22T14:47:26.549Z,12.43
2019-04-22T14:50:01.047Z,10.43
2019-04-22T14:52:41.390Z,11.40
2019-04-22T14:54:57.821Z,11.23
2019-04-22T14:57:28.531Z,11.70
2019-04-22T15:00:02.274Z,10.43
2019-04-22T15:02:53.011Z,12.47
2019-04-22T15:05:57.938Z,11.80
2019-04-22T15:08:37.228Z,10.80
2019-04-22T15:11:21.293Z,11.20
2019-04-22T15:15:05.760Z,11.20
2019-04-22T15:20:54.288Z,10.98
2019-04-22T15:23:28.670Z,9.10
2019-04-22T15:26:28.569Z,11.25
2019-04-22T15:29:09.323Z,9.43
2019-04-22T15:31:45.103Z,10.98
2019-04-22T15:34:24.989Z,9.18
2019-04-22T15:37:08.663Z,10.10
2019-04-22T15:39:39.437Z,11.55
2019-04-22T15:42:18.376Z,9.08
2019-04-22T15:44:44.282Z,10.13
2019-04-22T15:47:13.217Z,8.07
2019-04-22T15:49:42.515Z,8.27
2019-04-22T15:52:12.511Z,8.37
2019-04-22T15:58:29.967Z,7.30
2019-04-22T16:01:37.407Z,6.75
2019-04-22T16:04:20.807Z,8.80
2019-04-22T16:06:49.408Z,10.50
2019-04-22T16:09:18.223Z,10.77
2019-04-22T16:12:22.427Z,7.23
2019-04-22T16:14:52.951Z,8.77
2019-04-22T16:18:10.572Z,7.53
2019-04-22T16:20:56.316Z,11.93
2019-04-22T16:24:11.092Z,8.47
2019-04-22T16:26:58.294Z,7.67
2019-04-22T16:29:49.732Z,6.83
2019-04-22T16:32:23.330Z,7.77
2019-04-22T16:34:52.618Z,6.40
2019-04-22T16:37:32.750Z,7.63
2019-04-22T16:40:14.770Z,9.47
2019-04-22T16:46:05.627Z,8.10
2019-04-22T16:48:47.637Z,5.93
2019-04-22T16:51:24.429Z,7.47
2019-04-22T16:53:54.182Z,10.67
2019-04-22T16:56:24.662Z,6.37
2019-04-22T16:58:54.817Z,7.97
2019-04-22T17:02:01.273Z,9.97
2019-04-22T17:04:51.510Z,7.43
2019-04-22T17:07:34.244Z,7.47
2019-04-22T17:10:10.085Z,7.67
2019-04-22T17:13:17.169Z,9.80
2019-04-22T17:15:39.912Z,8.30
2019-04-22T17:18:17.192Z,9.40
2019-04-22T17:20:50.801Z,6.50
2019-04-22T17:23:29.560Z,8.83
2019-04-22T17:26:10.589Z,11.67
2019-04-22T17:29:06.360Z,8.70
2019-04-22T17:31:36.425Z,9.10
2019-04-22T17:34:06.970Z,6.33
2019-04-22T17:36:36.282Z,12.33
2019-04-22T17:39:27.043Z,9.30
2019-04-22T17:42:08.286Z,7.63
2019-04-22T17:47:29.049Z,8.47
2019-04-22T17:50:13.255Z,11.37
2019-04-22T17:52:36.421Z,7.87
2019-04-22T17:55:08.787Z,8.80
2019-04-22T17:57:39.150Z,13.33
2019-04-22T18:00:11.825Z,12.73
2019-04-22T18:02:45.710Z,10.67
2019-04-22T18:05:03.523Z,7.67
2019-04-22T18:07:57.360Z,9.00
2019-04-22T18:13:00.010Z,8.97
2019-04-22T18:15:26.929Z,6.77
2019-04-22T18:18:03.546Z,7.73
2019-04-22T18:20:27.537Z,6.50
2019-04-22T18:22:54.661Z,9.27
2019-04-22T18:25:34.068Z,5.23
2019-04-22T18:28:13.710Z,6.37
2019-04-22T18:30:33.458Z,6.77
2019-04-22T18:33:08.674Z,6.60
2019-04-22T18:35:42.050Z,8.57
2019-04-22T18:38:27.149Z,6.93
2019-04-22T18:40:43.316Z,7.10
2019-04-22T18:43:16.825Z,8.10
2019-04-22T18:46:06.984Z,8.37
2019-04-22T18:48:15.674Z,4.60
2019-04-22T18:51:13.294Z,7.67
2019-04-22T18:54:10.139Z,6.07
2019-04-22T18:56:52.437Z,6.77
2019-04-22T18:59:23.789Z,8.40
2019-04-22T19:01:48.001Z,7.87
2019-04-22T19:04:39.456Z,7.97
2019-04-22T19:07:28.684Z,5.13
2019-04-22T19:10:04.428Z,6.77
2019-04-22T19:13:31.326Z,6.77
2019-04-22T19:15:12.768Z,4.03
2019-04-22T19:17:45.953Z,3.53
2019-04-22T19:20:15.604Z,6.20
2019-04-22T19:22:53.001Z,5.03
2019-04-22T19:25:11.983Z,5.30
2019-04-22T19:28:01.206Z,7.60
2019-04-22T19:31:01.585Z,6.63
2019-04-22T19:33:34.851Z,4.40
2019-04-22T19:36:10.035Z,4.27
2019-04-22T19:38:28.890Z,4.53
2019-04-22T19:41:13.549Z,7.13
2019-04-22T19:43:46.553Z,5.87
2019-04-22T19:46:15.248Z,6.90
2019-04-22T19:49:21.921Z,6.43
2019-04-22T19:51:44.063Z,5.53
2019-04-22T19:54:01.461Z,5.10
2019-04-22T19:56:26.473Z,6.53
2019-04-22T19:59:08.783Z,4.10
2019-04-22T20:02:03.158Z,6.10
2019-04-22T20:04:52.670Z,3.67
2019-04-22T20:07:29.562Z,4.70
2019-04-22T20:10:10.621Z,6.97
2019-04-22T20:12:36.682Z,8.90
2019-04-22T20:15:06.657Z,4.97
2019-04-22T20:18:19.049Z,5.00
2019-04-22T20:20:27.658Z,5.13
2019-04-22T20:23:00.341Z,7.80
2019-04-22T20:25:40.854Z,3.80
2019-04-22T20:28:24.114Z,3.73
2019-04-22T20:30:56.202Z,5.67
2019-04-22T20:33:43.278Z,4.07
2019-04-22T20:36:36.454Z,4.73
2019-04-22T20:38:56.402Z,6.13
2019-04-22T20:41:31.210Z,3.57
2019-04-22T20:44:11.022Z,7.10
2019-04-22T20:46:40.746Z,3.67
2019-04-22T20:49:20.357Z,4.33
2019-04-22T20:54:39.040Z,4.93
2019-04-22T20:57:01.088Z,5.80
2019-04-22T20:59:37.185Z,3.00
2019-04-22T21:02:16.411Z,6.17
2019-04-22T21:04:41.646Z,2.93
2019-04-22T21:07:20.049Z,6.90
2019-04-22T21:09:53.974Z,4.13
2019-04-22T21:12:18.990Z,3.70
2019-04-22T21:15:03.589Z,5.70
2019-04-22T21:17:39.690Z,5.27
2019-04-22T21:20:17.305Z,3.27
2019-04-22T21:23:01.077Z,5.30
2019-04-22T21:25:36.227Z,3.40
2019-04-22T21:28:21.950Z,4.47
2019-04-22T21:30:48.090Z,2.90
2019-04-22T21:33:18.181Z,2.97
2019-04-22T21:36:11.788Z,3.73
2019-04-22T21:38:26.652Z,4.77
2019-04-22T21:40:56.674Z,5.97
2019-04-22T21:43:33.616Z,2.93
2019-04-22T21:46:01.280Z,4.27
2019-04-22T21:48:52.841Z,4.13
2019-04-22T21:51:10.944Z,4.47
2019-04-22T21:53:53.685Z,5.93
2019-04-22T21:56:29.053Z,4.47
2019-04-22T21:58:54.571Z,4.70
2019-04-22T22:01:39.688Z,3.93
2019-04-22T22:04:03.453Z,2.90
2019-04-22T22:06:27.136Z,5.23
2019-04-22T22:09:09.285Z,4.33
2019-04-22T22:11:38.725Z,2.80
2019-04-22T22:14:11.611Z,4.00
2019-04-22T22:16:38.926Z,3.57
2019-04-22T22:19:14.488Z,4.50
2019-04-22T22:22:02.399Z,3.20
2019-04-22T22:24:29.148Z,2.63
2019-04-22T22:27:10.384Z,4.90
2019-04-22T22:29:56.082Z,4.70
2019-04-22T22:32:18.285Z,5.57
2019-04-22T22:34:50.251Z,6.00
2019-04-22T22:37:11.721Z,3.83
2019-04-22T22:39:47.485Z,4.27
2019-04-22T22:42:05.920Z,4.17
2019-04-22T22:44:40.430Z,6.03
2019-04-22T22:47:24.227Z,5.63
2019-04-22T22:50:00.798Z,4.60
2019-04-22T22:54:58.941Z,5.27
2019-04-22T22:57:33.820Z,4.30
2019-04-22T23:00:01.738Z,2.87
2019-04-22T23:02:28.803Z,3.23
2019-04-22T23:05:04.155Z,7.20
2019-04-22T23:07:34.986Z,4.47
2019-04-22T23:10:09.739Z,4.97
2019-04-22T23:12:55.803Z,4.17
2019-04-22T23:15:04.786Z,3.03
2019-04-22T23:17:25.933Z,6.53
2019-04-22T23:19:53.821Z,5.60
2019-04-22T23:22:35.671Z,5.47
2019-04-22T23:25:21.423Z,5.87
2019-04-22T23:27:47.240Z,5.47
2019-04-22T23:30:20.827Z,4.77
2019-04-22T23:33:01.108Z,3.67
2019-04-22T23:35:41.729Z,4.80
2019-04-22T23:38:15.383Z,2.90
2019-04-22T23:40:47.817Z,4.87
2019-04-22T23:43:30.583Z,3.67
2019-04-22T23:45:56.679Z,4.90
2019-04-22T23:48:17.985Z,6.53
2019-04-22T23:50:58.905Z,4.23
2019-04-22T23:53:55.634Z,6.30
2019-04-22T23:56:00.257Z,6.87
2019-04-22T23:58:47.116Z,5.80
